createdAt,value
2018-06-30T00:00:36.538Z,0.00
2018-06-30T00:01:36.503Z,0.00
2018-06-30T00:02:36.474Z,0.00
2018-06-30T00:03:36.478Z,0.00
2018-06-30T00:04:36.414Z,0.00
2018-06-30T00:05:36.373Z,0.00
2018-06-30T00:06:37.079Z,0.00
2018-06-30T00:07:37.043Z,0.00
2018-06-30T00:08:37.022Z,0.00
2018-06-30T00:09:39.124Z,0.00
2018-06-30T00:10:36.242Z,0.00
2018-06-30T00:11:36.194Z,0.00
2018-06-30T00:12:36.175Z,0.00
2018-06-30T00:13:36.141Z,0.00
2018-06-30T00:14:36.096Z,0.00
2018-06-30T00:15:36.068Z,0.00
2018-06-30T00:16:36.027Z,0.00
2018-06-30T00:17:36.007Z,0.00
2018-06-30T00:18:35.985Z,0.00
2018-06-30T00:19:35.940Z,0.00
2018-06-30T00:20:35.906Z,0.00
2018-06-30T00:21:35.870Z,0.00
2018-06-30T00:22:35.856Z,0.00
2018-06-30T00:23:35.819Z,0.00
2018-06-30T00:24:35.773Z,0.00
2018-06-30T00:25:35.787Z,0.00
2018-06-30T00:26:35.713Z,0.00
2018-06-30T00:27:35.688Z,0.00
2018-06-30T00:28:35.669Z,0.00
2018-06-30T00:29:35.623Z,0.00
2018-06-30T00:30:35.582Z,0.00
2018-06-30T00:31:35.565Z,0.00
2018-06-30T00:32:35.547Z,0.00
2018-06-30T00:33:35.489Z,0.00
2018-06-30T00:34:35.461Z,0.00
2018-06-30T00:35:35.432Z,0.00
2018-06-30T00:36:35.424Z,0.00
2018-06-30T00:37:35.364Z,0.00
2018-06-30T00:38:35.328Z,0.00
2018-06-30T00:39:35.317Z,0.00
2018-06-30T00:40:35.284Z,0.00
2018-06-30T00:41:35.241Z,0.00
2018-06-30T00:42:35.206Z,0.00
2018-06-30T00:43:35.180Z,0.00
2018-06-30T00:44:35.154Z,0.00
2018-06-30T00:45:35.112Z,0.00
2018-06-30T00:46:35.079Z,0.00
2018-06-30T00:47:35.048Z,0.00
2018-06-30T00:48:35.081Z,0.00
2018-06-30T00:49:34.990Z,0.00
2018-06-30T00:50:34.952Z,0.00
2018-06-30T00:51:34.918Z,0.00
2018-06-30T00:52:34.915Z,0.00
2018-06-30T00:53:34.862Z,0.00
2018-06-30T00:54:34.849Z,0.00
2018-06-30T00:55:34.826Z,0.00
2018-06-30T00:56:34.780Z,0.00
2018-06-30T00:57:34.742Z,0.00
2018-06-30T00:58:34.695Z,0.00
2018-06-30T00:59:34.675Z,0.00
2018-06-30T01:00:34.644Z,0.00
2018-06-30T01:01:34.603Z,0.00
2018-06-30T01:02:34.607Z,0.00
2018-06-30T01:03:34.575Z,0.00
2018-06-30T01:04:34.513Z,0.00
2018-06-30T01:05:34.478Z,0.00
2018-06-30T01:06:34.447Z,0.00
2018-06-30T01:07:34.412Z,0.00
2018-06-30T01:08:34.372Z,0.00
2018-06-30T01:09:34.348Z,0.00
2018-06-30T01:10:34.320Z,0.00
2018-06-30T01:11:34.289Z,0.00
2018-06-30T01:12:34.254Z,0.00
2018-06-30T01:13:34.237Z,0.00
2018-06-30T01:14:34.206Z,0.00
2018-06-30T01:15:34.184Z,0.00
2018-06-30T01:16:34.146Z,0.00
2018-06-30T01:17:34.094Z,0.00
2018-06-30T01:18:34.062Z,0.00
2018-06-30T01:19:34.028Z,0.00
2018-06-30T01:20:34.009Z,0.00
2018-06-30T01:21:33.977Z,0.00
2018-06-30T01:22:33.951Z,0.00
2018-06-30T01:23:33.913Z,0.00
2018-06-30T01:24:33.901Z,0.00
2018-06-30T01:25:33.836Z,0.00
2018-06-30T01:26:33.811Z,0.00
2018-06-30T01:27:33.764Z,0.00
2018-06-30T01:28:33.760Z,0.00
2018-06-30T01:29:33.703Z,0.00
2018-06-30T01:30:33.690Z,0.00
2018-06-30T01:31:33.646Z,0.00
2018-06-30T01:32:33.614Z,0.00
2018-06-30T01:33:33.580Z,0.00
2018-06-30T01:34:33.548Z,0.00
2018-06-30T01:35:33.527Z,0.00
2018-06-30T01:36:33.808Z,0.00
2018-06-30T01:37:33.468Z,0.00
2018-06-30T01:38:33.430Z,0.00
2018-06-30T01:39:33.415Z,0.00
2018-06-30T01:40:33.369Z,0.00
2018-06-30T01:41:33.367Z,0.00
2018-06-30T01:42:33.288Z,0.00
2018-06-30T01:43:33.253Z,0.00
2018-06-30T01:44:33.243Z,0.00
2018-06-30T01:45:33.197Z,0.00
2018-06-30T01:46:33.160Z,0.00
2018-06-30T01:47:33.124Z,0.00
2018-06-30T01:48:33.100Z,0.00
2018-06-30T01:49:33.064Z,0.00
2018-06-30T01:50:33.038Z,0.00
2018-06-30T01:51:33.009Z,0.00
2018-06-30T01:52:32.972Z,0.00
2018-06-30T01:53:32.936Z,0.00
2018-06-30T01:54:32.908Z,0.00
2018-06-30T01:55:32.878Z,0.00
2018-06-30T01:56:32.871Z,0.00
2018-06-30T01:57:32.801Z,0.00
2018-06-30T01:58:32.767Z,0.00
2018-06-30T01:59:32.742Z,0.00
2018-06-30T02:00:32.725Z,0.00
2018-06-30T02:01:32.676Z,0.00
2018-06-30T02:02:32.642Z,0.00
2018-06-30T02:03:32.604Z,0.00
2018-06-30T02:04:32.584Z,0.00
2018-06-30T02:05:32.542Z,0.00
2018-06-30T02:06:32.526Z,0.00
2018-06-30T02:07:32.480Z,0.00
2018-06-30T02:08:32.468Z,0.00
2018-06-30T02:09:32.434Z,0.00
2018-06-30T02:10:32.382Z,0.00
2018-06-30T02:11:32.347Z,0.00
2018-06-30T02:12:32.336Z,0.00
2018-06-30T02:13:32.291Z,0.00
2018-06-30T02:14:32.250Z,0.00
2018-06-30T02:15:32.241Z,0.00
2018-06-30T02:16:32.182Z,0.00
2018-06-30T02:17:32.178Z,0.00
2018-06-30T02:18:32.121Z,0.00
2018-06-30T02:19:32.124Z,0.00
2018-06-30T02:20:32.051Z,0.00
2018-06-30T02:21:32.080Z,0.00
2018-06-30T02:22:31.984Z,0.00
2018-06-30T02:23:31.952Z,0.00
2018-06-30T02:24:31.944Z,0.00
2018-06-30T02:25:31.910Z,0.00
2018-06-30T02:26:31.942Z,0.00
2018-06-30T02:27:31.829Z,0.00
2018-06-30T02:28:31.811Z,0.00
2018-06-30T02:29:31.785Z,0.00
2018-06-30T02:30:31.734Z,0.00
2018-06-30T02:31:31.732Z,0.00
2018-06-30T02:32:31.700Z,0.00
2018-06-30T02:33:31.648Z,0.00
2018-06-30T02:34:31.605Z,0.00
2018-06-30T02:35:31.566Z,0.00
2018-06-30T02:36:31.535Z,0.00
2018-06-30T02:37:31.509Z,0.00
2018-06-30T02:38:31.474Z,0.00
2018-06-30T02:39:31.501Z,0.00
2018-06-30T02:40:31.411Z,0.00
2018-06-30T02:41:31.369Z,0.00
2018-06-30T02:42:31.346Z,0.00
2018-06-30T02:43:31.315Z,0.00
2018-06-30T02:44:31.276Z,0.00
2018-06-30T02:45:31.270Z,4.00
2018-06-30T02:46:31.218Z,4.00
2018-06-30T02:47:31.176Z,0.00
2018-06-30T02:48:31.144Z,0.00
2018-06-30T02:49:31.115Z,4.00
2018-06-30T02:50:31.074Z,4.00
2018-06-30T02:51:31.048Z,0.00
2018-06-30T02:52:31.013Z,4.00
2018-06-30T02:53:31.013Z,4.00
2018-06-30T02:54:30.949Z,4.00
2018-06-30T02:55:30.912Z,4.00
2018-06-30T02:56:30.950Z,4.00
2018-06-30T02:57:30.851Z,4.00
2018-06-30T02:58:30.822Z,8.00
2018-06-30T02:59:30.800Z,8.00
2018-06-30T03:00:30.747Z,8.00
2018-06-30T03:01:30.723Z,8.00
2018-06-30T03:02:30.699Z,8.00
2018-06-30T03:03:30.658Z,12.00
2018-06-30T03:04:30.636Z,12.00
2018-06-30T03:05:30.593Z,16.00
2018-06-30T03:06:30.558Z,16.00
2018-06-30T03:07:30.526Z,20.00
2018-06-30T03:08:30.484Z,20.00
2018-06-30T03:09:30.505Z,24.00
2018-06-30T03:10:30.457Z,28.00
2018-06-30T03:11:30.404Z,28.00
2018-06-30T03:12:30.391Z,32.00
2018-06-30T03:13:30.335Z,36.00
2018-06-30T03:14:30.301Z,40.00
2018-06-30T03:15:30.255Z,40.00
2018-06-30T03:16:30.262Z,48.00
2018-06-30T03:17:30.194Z,52.00
2018-06-30T03:18:30.167Z,56.00
2018-06-30T03:19:30.132Z,60.00
2018-06-30T03:20:30.109Z,68.00
2018-06-30T03:21:30.064Z,72.00
2018-06-30T03:22:30.033Z,80.00
2018-06-30T03:23:30.019Z,88.00
2018-06-30T03:24:29.985Z,92.00
2018-06-30T03:25:29.935Z,100.00
2018-06-30T03:26:29.895Z,108.00
2018-06-30T03:27:29.880Z,116.00
2018-06-30T03:28:29.843Z,120.00
2018-06-30T03:29:29.802Z,128.00
2018-06-30T03:30:29.801Z,136.00
2018-06-30T03:31:29.759Z,148.00
2018-06-30T03:32:29.714Z,156.00
2018-06-30T03:33:29.695Z,168.00
2018-06-30T03:34:29.633Z,176.00
2018-06-30T03:35:29.603Z,184.00
2018-06-30T03:36:29.574Z,196.00
2018-06-30T03:37:29.553Z,208.00
2018-06-30T03:38:29.512Z,216.00
2018-06-30T03:39:29.470Z,232.00
2018-06-30T03:40:29.462Z,244.00
2018-06-30T03:41:29.436Z,256.00
2018-06-30T03:42:29.414Z,268.00
2018-06-30T03:43:29.364Z,284.00
2018-06-30T03:44:29.328Z,296.00
2018-06-30T03:45:29.299Z,312.00
2018-06-30T03:46:29.245Z,328.00
2018-06-30T03:47:29.252Z,340.00
2018-06-30T03:48:29.176Z,360.00
2018-06-30T03:49:29.152Z,376.00
2018-06-30T03:50:29.119Z,396.00
2018-06-30T03:51:29.089Z,416.00
2018-06-30T03:52:29.051Z,436.00
2018-06-30T03:53:29.022Z,460.00
2018-06-30T03:54:29.001Z,480.00
2018-06-30T03:55:28.977Z,508.00
2018-06-30T03:56:28.921Z,532.00
2018-06-30T03:57:29.577Z,560.00
2018-06-30T03:58:28.857Z,588.00
2018-06-30T03:59:29.572Z,612.00
2018-06-30T04:00:28.793Z,640.00
2018-06-30T04:01:28.752Z,664.00
2018-06-30T04:02:28.725Z,692.00
2018-06-30T04:03:28.693Z,716.00
2018-06-30T04:04:28.668Z,744.00
2018-06-30T04:05:28.659Z,768.00
2018-06-30T04:06:28.604Z,796.00
2018-06-30T04:07:28.566Z,816.00
2018-06-30T04:08:28.526Z,848.00
2018-06-30T04:09:28.518Z,876.00
2018-06-30T04:10:28.501Z,908.00
2018-06-30T04:11:28.426Z,936.00
2018-06-30T04:12:28.397Z,956.00
2018-06-30T04:13:28.374Z,980.00
2018-06-30T04:14:28.353Z,1012.00
2018-06-30T04:15:28.329Z,1040.00
2018-06-30T04:16:28.295Z,1060.00
2018-06-30T04:17:28.240Z,1080.00
2018-06-30T04:18:28.203Z,1092.00
2018-06-30T04:19:28.209Z,1120.00
2018-06-30T04:20:28.138Z,1148.00
2018-06-30T04:21:28.126Z,1176.00
2018-06-30T04:22:28.098Z,1208.00
2018-06-30T04:23:28.062Z,1236.00
2018-06-30T04:24:28.062Z,1268.00
2018-06-30T04:25:28.037Z,1292.00
2018-06-30T04:26:27.942Z,1316.00
2018-06-30T04:27:27.937Z,1344.00
2018-06-30T04:28:27.904Z,1364.00
2018-06-30T04:29:27.873Z,1388.00
2018-06-30T04:30:27.815Z,1416.00
2018-06-30T04:31:27.832Z,1444.00
2018-06-30T04:32:27.799Z,1484.00
2018-06-30T04:33:27.736Z,1520.00
2018-06-30T04:34:27.733Z,1552.00
2018-06-30T04:35:27.667Z,1580.00
2018-06-30T04:36:27.635Z,1600.00
2018-06-30T04:37:27.639Z,1624.00
2018-06-30T04:38:27.564Z,1648.00
2018-06-30T04:39:27.550Z,1680.00
2018-06-30T04:40:27.513Z,1716.00
2018-06-30T04:41:27.500Z,1740.00
2018-06-30T04:42:27.433Z,1772.00
2018-06-30T04:43:27.399Z,1816.00
2018-06-30T04:44:27.367Z,1852.00
2018-06-30T04:45:27.345Z,1872.00
2018-06-30T04:46:27.309Z,1884.00
2018-06-30T04:47:27.287Z,1900.00
2018-06-30T04:48:27.254Z,1944.00
2018-06-30T04:49:27.212Z,1984.00
2018-06-30T04:50:27.220Z,2004.00
2018-06-30T04:51:27.150Z,2036.00
2018-06-30T04:52:27.128Z,2080.00
2018-06-30T04:53:27.091Z,2128.00
2018-06-30T04:54:27.083Z,2152.00
2018-06-30T04:55:27.021Z,2164.00
2018-06-30T04:56:27.025Z,2156.00
2018-06-30T04:57:26.962Z,2172.00
2018-06-30T04:58:26.936Z,2188.00
2018-06-30T04:59:26.922Z,2208.00
2018-06-30T05:00:26.867Z,2232.00
2018-06-30T05:01:26.858Z,2244.00
2018-06-30T05:02:26.809Z,2264.00
2018-06-30T05:03:26.790Z,2300.00
2018-06-30T05:04:26.814Z,2340.00
2018-06-30T05:05:26.723Z,2372.00
2018-06-30T05:06:26.684Z,2408.00
2018-06-30T05:07:26.676Z,2440.00
2018-06-30T05:08:26.624Z,2456.00
2018-06-30T05:09:26.629Z,2456.00
2018-06-30T05:10:26.563Z,2496.00
2018-06-30T05:11:26.519Z,2540.00
2018-06-30T05:12:26.494Z,2580.00
2018-06-30T05:13:26.463Z,2584.00
2018-06-30T05:14:26.425Z,2596.00
2018-06-30T05:15:26.394Z,2580.00
2018-06-30T05:16:26.369Z,2568.00
2018-06-30T05:17:26.338Z,2564.00
2018-06-30T05:18:26.311Z,2604.00
2018-06-30T05:19:26.277Z,2656.00
2018-06-30T05:20:26.265Z,2704.00
2018-06-30T05:21:26.207Z,2740.00
2018-06-30T05:22:26.186Z,2788.00
2018-06-30T05:23:26.166Z,2828.00
2018-06-30T05:24:26.160Z,2864.00
2018-06-30T05:25:26.126Z,2916.00
2018-06-30T05:26:26.072Z,2980.00
2018-06-30T05:27:26.052Z,3032.00
2018-06-30T05:28:26.020Z,3056.00
2018-06-30T05:29:25.975Z,3092.00
2018-06-30T05:30:25.931Z,3124.00
2018-06-30T05:31:25.901Z,3172.00
2018-06-30T05:32:25.898Z,3184.00
2018-06-30T05:33:25.895Z,3192.00
2018-06-30T05:34:25.816Z,3220.00
2018-06-30T05:35:25.786Z,3260.00
2018-06-30T05:36:25.750Z,3344.00
2018-06-30T05:37:25.716Z,3368.00
2018-06-30T05:38:25.725Z,3344.00
2018-06-30T05:39:25.662Z,3348.00
2018-06-30T05:40:26.141Z,3376.00
2018-06-30T05:41:25.601Z,3376.00
2018-06-30T05:42:25.572Z,3344.00
2018-06-30T05:43:25.540Z,3320.00
2018-06-30T05:44:25.505Z,3328.00
2018-06-30T05:45:25.479Z,3360.00
2018-06-30T05:46:25.447Z,3380.00
2018-06-30T05:47:25.447Z,3384.00
2018-06-30T05:48:25.401Z,3396.00
2018-06-30T05:49:25.354Z,3408.00
2018-06-30T05:50:25.352Z,3436.00
2018-06-30T05:51:25.350Z,3444.00
2018-06-30T05:52:25.278Z,3452.00
2018-06-30T05:53:25.238Z,3484.00
2018-06-30T05:54:25.233Z,3504.00
2018-06-30T05:55:25.194Z,3540.00
2018-06-30T05:56:25.165Z,3544.00
2018-06-30T05:57:25.147Z,3864.00
2018-06-30T05:58:25.124Z,3920.00
2018-06-30T05:59:25.105Z,3968.00
2018-06-30T06:00:25.039Z,6928.00
2018-06-30T06:01:25.001Z,6980.00
2018-06-30T06:02:24.969Z,7028.00
2018-06-30T06:03:24.932Z,7128.00
2018-06-30T06:04:24.909Z,7160.00
2018-06-30T06:05:24.884Z,7120.00
2018-06-30T06:06:24.859Z,7136.00
2018-06-30T06:07:24.821Z,7168.00
2018-06-30T06:08:24.793Z,7296.00
2018-06-30T06:09:24.766Z,7328.00
2018-06-30T06:10:24.728Z,7444.00
2018-06-30T06:11:24.724Z,7500.00
2018-06-30T06:12:24.680Z,7564.00
2018-06-30T06:13:24.652Z,7668.00
2018-06-30T06:14:24.620Z,7712.00
2018-06-30T06:15:24.628Z,7788.00
2018-06-30T06:16:24.563Z,7804.00
2018-06-30T06:17:24.534Z,7856.00
2018-06-30T06:18:24.503Z,7912.00
2018-06-30T06:19:24.475Z,7952.00
2018-06-30T06:20:24.446Z,8032.00
2018-06-30T06:21:24.419Z,7900.00
2018-06-30T06:22:24.391Z,7992.00
2018-06-30T06:23:24.361Z,8112.00
2018-06-30T06:24:24.334Z,8136.00
2018-06-30T06:25:24.305Z,8196.00
2018-06-30T06:26:24.276Z,8216.00
2018-06-30T06:27:24.269Z,8264.00
2018-06-30T06:28:24.221Z,8328.00
2018-06-30T06:29:24.200Z,8376.00
2018-06-30T06:30:24.165Z,8392.00
2018-06-30T06:31:24.137Z,8356.00
2018-06-30T06:32:24.129Z,8444.00
2018-06-30T06:33:24.085Z,8504.00
2018-06-30T06:34:24.051Z,8532.00
2018-06-30T06:35:24.025Z,8544.00
2018-06-30T06:36:23.996Z,8596.00
2018-06-30T06:37:23.971Z,8668.00
2018-06-30T06:38:23.938Z,8712.00
2018-06-30T06:39:23.913Z,8736.00
2018-06-30T06:40:23.885Z,8788.00
2018-06-30T06:41:23.859Z,8828.00
2018-06-30T06:42:23.822Z,8812.00
2018-06-30T06:43:23.814Z,8832.00
2018-06-30T06:44:23.787Z,8864.00
2018-06-30T06:45:23.753Z,8952.00
2018-06-30T06:46:23.720Z,9016.00
2018-06-30T06:47:23.693Z,9044.00
2018-06-30T06:48:23.667Z,9112.00
2018-06-30T06:49:23.652Z,9112.00
2018-06-30T06:50:23.611Z,9064.00
2018-06-30T06:51:23.582Z,8948.00
2018-06-30T06:52:23.572Z,8952.00
2018-06-30T06:53:23.548Z,9020.00
2018-06-30T06:54:23.687Z,9076.00
2018-06-30T06:55:23.494Z,9120.00
2018-06-30T06:56:23.477Z,9172.00
2018-06-30T06:57:23.417Z,9156.00
2018-06-30T06:58:23.390Z,9156.00
2018-06-30T06:59:23.366Z,9240.00
2018-06-30T07:00:23.332Z,9224.00
2018-06-30T07:01:23.309Z,9324.00
2018-06-30T07:02:23.281Z,9504.00
2018-06-30T07:03:23.255Z,9524.00
2018-06-30T07:04:23.229Z,9468.00
2018-06-30T07:05:23.201Z,9440.00
2018-06-30T07:06:23.175Z,9592.00
2018-06-30T07:07:23.150Z,9552.00
2018-06-30T07:08:23.121Z,9668.00
2018-06-30T07:09:23.093Z,9704.00
2018-06-30T07:10:23.066Z,9872.00
2018-06-30T07:11:23.040Z,9928.00
2018-06-30T07:12:23.013Z,9856.00
2018-06-30T07:13:22.988Z,9876.00
2018-06-30T07:14:22.958Z,10004.00
2018-06-30T07:15:22.933Z,10032.00
2018-06-30T07:16:22.927Z,10148.00
2018-06-30T07:17:22.899Z,9960.00
2018-06-30T07:18:22.851Z,9864.00
2018-06-30T07:19:22.827Z,9948.00
2018-06-30T07:20:22.799Z,10024.00
2018-06-30T07:21:22.775Z,10080.00
2018-06-30T07:22:22.755Z,10152.00
2018-06-30T07:23:22.720Z,10248.00
2018-06-30T07:24:22.692Z,10268.00
2018-06-30T07:25:22.700Z,10320.00
2018-06-30T07:26:22.638Z,10308.00
2018-06-30T07:27:22.624Z,10292.00
2018-06-30T07:28:22.599Z,10368.00
2018-06-30T07:29:22.571Z,10428.00
2018-06-30T07:30:22.548Z,10508.00
2018-06-30T07:31:22.504Z,10564.00
2018-06-30T07:32:22.481Z,10636.00
2018-06-30T07:33:22.456Z,10700.00
2018-06-30T07:34:22.530Z,10820.00
2018-06-30T07:35:22.405Z,10856.00
2018-06-30T07:36:22.386Z,10852.00
2018-06-30T07:37:22.402Z,10892.00
2018-06-30T07:38:22.340Z,10920.00
2018-06-30T07:39:22.442Z,15776.00
2018-06-30T07:40:22.277Z,15908.00
2018-06-30T07:41:23.648Z,16044.00
2018-06-30T07:42:22.430Z,16120.00
2018-06-30T07:43:22.201Z,16208.00
2018-06-30T07:44:22.174Z,16240.00
2018-06-30T07:45:22.146Z,16300.00
2018-06-30T07:46:22.127Z,16408.00
2018-06-30T07:47:22.095Z,16420.00
2018-06-30T07:48:22.069Z,16472.00
2018-06-30T07:49:22.047Z,16736.00
2018-06-30T07:50:22.049Z,16800.00
2018-06-30T07:51:21.992Z,16864.00
2018-06-30T07:52:21.967Z,16928.00
2018-06-30T07:53:21.938Z,17056.00
2018-06-30T07:54:21.917Z,17120.00
2018-06-30T07:55:21.889Z,17248.00
2018-06-30T07:56:21.864Z,17280.00
2018-06-30T07:57:21.838Z,17376.00
2018-06-30T07:58:21.812Z,17472.00
2018-06-30T07:59:21.786Z,17504.00
2018-06-30T08:00:21.777Z,17568.00
2018-06-30T08:01:21.736Z,17536.00
2018-06-30T08:02:21.707Z,17536.00
2018-06-30T08:03:21.686Z,17568.00
2018-06-30T08:04:21.659Z,17696.00
2018-06-30T08:05:21.634Z,17792.00
2018-06-30T08:06:21.610Z,17888.00
2018-06-30T08:07:21.621Z,18048.00
2018-06-30T08:08:21.563Z,18080.00
2018-06-30T08:09:21.533Z,18016.00
2018-06-30T08:10:21.505Z,18112.00
2018-06-30T08:11:21.482Z,18208.00
2018-06-30T08:12:21.460Z,18304.00
2018-06-30T08:13:21.436Z,18400.00
2018-06-30T08:14:21.410Z,18400.00
2018-06-30T08:15:21.380Z,18464.00
2018-06-30T08:16:21.360Z,18432.00
2018-06-30T08:17:21.339Z,18528.00
2018-06-30T08:18:21.312Z,18624.00
2018-06-30T08:19:21.288Z,18688.00
2018-06-30T08:20:21.260Z,18848.00
2018-06-30T08:21:21.238Z,18912.00
2018-06-30T08:22:21.229Z,18944.00
2018-06-30T08:23:21.187Z,19040.00
2018-06-30T08:24:21.166Z,19104.00
2018-06-30T08:25:21.141Z,19168.00
2018-06-30T08:26:21.114Z,19200.00
2018-06-30T08:27:21.089Z,19168.00
2018-06-30T08:28:21.065Z,19168.00
2018-06-30T08:29:21.044Z,19264.00
2018-06-30T08:30:21.020Z,19424.00
2018-06-30T08:31:20.991Z,19488.00
2018-06-30T08:32:20.969Z,19616.00
2018-06-30T08:33:20.943Z,19776.00
2018-06-30T08:34:20.919Z,19936.00
2018-06-30T08:35:20.925Z,20064.00
2018-06-30T08:36:20.948Z,20768.00
2018-06-30T08:37:20.849Z,21312.00
2018-06-30T08:38:20.820Z,21024.00
2018-06-30T08:39:20.797Z,21056.00
2018-06-30T08:40:20.804Z,21984.00
2018-06-30T08:41:20.743Z,22592.00
2018-06-30T08:42:20.727Z,22208.00
2018-06-30T08:43:20.703Z,22016.00
2018-06-30T08:44:20.688Z,21792.00
2018-06-30T08:45:20.654Z,21728.00
2018-06-30T08:46:20.633Z,21696.00
2018-06-30T08:47:20.606Z,21632.00
2018-06-30T08:48:20.583Z,21440.00
2018-06-30T08:49:20.558Z,21440.00
2018-06-30T08:50:20.534Z,21344.00
2018-06-30T08:51:20.516Z,21408.00
2018-06-30T08:52:20.488Z,21376.00
2018-06-30T08:53:20.470Z,21312.00
2018-06-30T08:54:20.439Z,21184.00
2018-06-30T08:55:20.447Z,21184.00
2018-06-30T08:56:20.391Z,21152.00
2018-06-30T08:57:20.370Z,20928.00
2018-06-30T08:58:20.343Z,21024.00
2018-06-30T08:59:20.320Z,21088.00
2018-06-30T09:00:20.298Z,21184.00
2018-06-30T09:01:20.296Z,21344.00
2018-06-30T09:02:20.252Z,20896.00
2018-06-30T09:03:20.225Z,20032.00
2018-06-30T09:04:20.203Z,19584.00
2018-06-30T09:05:20.177Z,19744.00
2018-06-30T09:06:20.166Z,19712.00
2018-06-30T09:07:20.129Z,19680.00
2018-06-30T09:08:20.113Z,19680.00
2018-06-30T09:09:20.087Z,19584.00
2018-06-30T09:10:20.062Z,19520.00
2018-06-30T09:11:20.036Z,19520.00
2018-06-30T09:12:20.055Z,19712.00
2018-06-30T09:13:19.992Z,20384.00
2018-06-30T09:14:19.979Z,20800.00
2018-06-30T09:15:19.946Z,20768.00
2018-06-30T09:16:19.923Z,20704.00
2018-06-30T09:17:19.898Z,20608.00
2018-06-30T09:18:19.904Z,20448.00
2018-06-30T09:19:19.853Z,20320.00
2018-06-30T09:20:19.898Z,20032.00
2018-06-30T09:21:19.823Z,19552.00
2018-06-30T09:22:19.784Z,19136.00
2018-06-30T09:23:19.764Z,19008.00
2018-06-30T09:24:19.749Z,18816.00
2018-06-30T09:25:19.724Z,18944.00
2018-06-30T09:26:19.698Z,18944.00
2018-06-30T09:27:19.671Z,18816.00
2018-06-30T09:28:19.650Z,18688.00
2018-06-30T09:29:19.667Z,18752.00
2018-06-30T09:30:19.604Z,18688.00
2018-06-30T09:31:19.586Z,18784.00
2018-06-30T09:32:19.561Z,18784.00
2018-06-30T09:33:19.536Z,18784.00
2018-06-30T09:34:19.514Z,18752.00
2018-06-30T09:35:19.492Z,18720.00
2018-06-30T09:36:19.472Z,18624.00
2018-06-30T09:37:19.447Z,18528.00
2018-06-30T09:38:19.425Z,18400.00
2018-06-30T09:39:19.404Z,18432.00
2018-06-30T09:40:19.380Z,18496.00
2018-06-30T09:41:19.360Z,18368.00
2018-06-30T09:42:19.339Z,18432.00
2018-06-30T09:43:19.317Z,18240.00
2018-06-30T09:44:19.355Z,18240.00
2018-06-30T09:45:19.269Z,18176.00
2018-06-30T09:46:19.250Z,18144.00
2018-06-30T09:47:19.228Z,18112.00
2018-06-30T09:48:19.204Z,18112.00
2018-06-30T09:49:19.184Z,18208.00
2018-06-30T09:50:19.163Z,18304.00
2018-06-30T09:51:19.139Z,18400.00
2018-06-30T09:52:19.116Z,18336.00
2018-06-30T09:53:19.102Z,18176.00
2018-06-30T09:54:19.073Z,17984.00
2018-06-30T09:55:19.051Z,18048.00
2018-06-30T09:56:19.030Z,18080.00
2018-06-30T09:57:19.009Z,18048.00
2018-06-30T09:58:18.986Z,18144.00
2018-06-30T09:59:18.965Z,18112.00
2018-06-30T10:00:18.941Z,17856.00
2018-06-30T10:01:18.920Z,17952.00
2018-06-30T10:02:18.897Z,18016.00
2018-06-30T10:03:18.884Z,17888.00
2018-06-30T10:04:18.857Z,17888.00
2018-06-30T10:05:18.834Z,18048.00
2018-06-30T10:06:18.814Z,17824.00
2018-06-30T10:07:18.794Z,17888.00
2018-06-30T10:08:18.824Z,17728.00
2018-06-30T10:09:18.757Z,17984.00
2018-06-30T10:10:18.725Z,17728.00
2018-06-30T10:11:18.708Z,17376.00
2018-06-30T10:12:18.690Z,17376.00
2018-06-30T10:13:18.665Z,16832.00
2018-06-30T10:14:18.641Z,17312.00
2018-06-30T10:15:18.864Z,17280.00
2018-06-30T10:16:18.600Z,16864.00
2018-06-30T10:17:18.575Z,17184.00
2018-06-30T10:18:18.556Z,17440.00
2018-06-30T10:19:18.539Z,17472.00
2018-06-30T10:20:18.517Z,17440.00
2018-06-30T10:21:18.607Z,17344.00
2018-06-30T10:22:18.469Z,17312.00
2018-06-30T10:23:18.548Z,17184.00
2018-06-30T10:24:18.429Z,17216.00
2018-06-30T10:25:18.409Z,17152.00
2018-06-30T10:26:18.387Z,16992.00
2018-06-30T10:27:18.364Z,16768.00
2018-06-30T10:28:18.345Z,17088.00
2018-06-30T10:29:18.322Z,16992.00
2018-06-30T10:30:18.303Z,16896.00
2018-06-30T10:31:18.310Z,16960.00
2018-06-30T10:32:18.257Z,16832.00
2018-06-30T10:33:18.240Z,16672.00
2018-06-30T10:34:18.216Z,16832.00
2018-06-30T10:35:18.192Z,16864.00
2018-06-30T10:36:18.176Z,16704.00
2018-06-30T10:37:18.156Z,16640.00
2018-06-30T10:38:18.135Z,16512.00
2018-06-30T10:39:18.114Z,16416.00
2018-06-30T10:40:18.099Z,16512.00
2018-06-30T10:41:18.071Z,16480.00
2018-06-30T10:42:18.087Z,16544.00
2018-06-30T10:43:18.030Z,16576.00
2018-06-30T10:44:18.010Z,16448.00
2018-06-30T10:45:18.533Z,15992.00
2018-06-30T10:46:17.961Z,15884.00
2018-06-30T10:47:17.977Z,15880.00
2018-06-30T10:48:17.927Z,15860.00
2018-06-30T10:49:17.906Z,15840.00
2018-06-30T10:50:17.885Z,15700.00
2018-06-30T10:51:17.865Z,15416.00
2018-06-30T10:52:17.851Z,15516.00
2018-06-30T10:53:17.821Z,15640.00
2018-06-30T10:54:17.801Z,15724.00
2018-06-30T10:55:17.806Z,15572.00
2018-06-30T10:56:17.761Z,15036.00
2018-06-30T10:57:17.740Z,14652.00
2018-06-30T10:58:17.947Z,15412.00
2018-06-30T10:59:17.701Z,15444.00
2018-06-30T11:00:17.769Z,15160.00
2018-06-30T11:01:17.658Z,15112.00
2018-06-30T11:02:17.987Z,13948.00
2018-06-30T11:03:17.616Z,14900.00
2018-06-30T11:04:17.646Z,15060.00
2018-06-30T11:05:17.595Z,15332.00
2018-06-30T11:06:17.553Z,14984.00
2018-06-30T11:07:17.532Z,15228.00
2018-06-30T11:08:17.514Z,15352.00
2018-06-30T11:09:17.493Z,15408.00
2018-06-30T11:10:17.474Z,15120.00
2018-06-30T11:11:17.451Z,12304.00
2018-06-30T11:12:17.431Z,14584.00
2018-06-30T11:13:17.414Z,14892.00
2018-06-30T11:14:17.392Z,15308.00
2018-06-30T11:15:17.403Z,15296.00
2018-06-30T11:16:17.354Z,14952.00
2018-06-30T11:17:17.333Z,14480.00
2018-06-30T11:18:17.319Z,14160.00
2018-06-30T11:19:17.288Z,14380.00
2018-06-30T11:20:17.361Z,14820.00
2018-06-30T11:21:17.251Z,14868.00
2018-06-30T11:22:17.287Z,14592.00
2018-06-30T11:23:17.770Z,13908.00
2018-06-30T11:24:17.191Z,14984.00
2018-06-30T11:25:17.173Z,14996.00
2018-06-30T11:26:17.153Z,15076.00
2018-06-30T11:27:17.128Z,14892.00
2018-06-30T11:28:17.635Z,14668.00
2018-06-30T11:29:17.096Z,14712.00
2018-06-30T11:30:17.107Z,14828.00
2018-06-30T11:31:17.056Z,14668.00
2018-06-30T11:32:17.035Z,14332.00
2018-06-30T11:33:17.016Z,14404.00
2018-06-30T11:34:16.995Z,14192.00
2018-06-30T11:35:16.978Z,14084.00
2018-06-30T11:36:16.960Z,14020.00
2018-06-30T11:37:16.938Z,13872.00
2018-06-30T11:38:16.920Z,13784.00
2018-06-30T11:39:16.902Z,13844.00
2018-06-30T11:40:16.912Z,13764.00
2018-06-30T11:41:16.860Z,13720.00
2018-06-30T11:42:16.838Z,13832.00
2018-06-30T11:43:16.824Z,13876.00
2018-06-30T11:44:16.806Z,13744.00
2018-06-30T11:45:16.869Z,13696.00
2018-06-30T11:46:16.763Z,13640.00
2018-06-30T11:47:16.748Z,13660.00
2018-06-30T11:48:16.729Z,13748.00
2018-06-30T11:49:16.714Z,13856.00
2018-06-30T11:50:16.710Z,13620.00
2018-06-30T11:51:16.674Z,13496.00
2018-06-30T11:52:16.652Z,13688.00
2018-06-30T11:53:16.632Z,13848.00
2018-06-30T11:54:16.615Z,13744.00
2018-06-30T11:55:16.596Z,13528.00
2018-06-30T11:56:16.576Z,13488.00
2018-06-30T11:57:16.555Z,13556.00
2018-06-30T11:58:16.533Z,13660.00
2018-06-30T11:59:16.514Z,13756.00
2018-06-30T12:00:16.494Z,13824.00
2018-06-30T12:01:16.473Z,13928.00
2018-06-30T12:02:16.454Z,14088.00
2018-06-30T12:03:16.431Z,14104.00
2018-06-30T12:04:16.411Z,14028.00
2018-06-30T12:05:16.390Z,14084.00
2018-06-30T12:06:16.458Z,13920.00
2018-06-30T12:07:16.353Z,13244.00
2018-06-30T12:08:16.333Z,13288.00
2018-06-30T12:09:16.345Z,13204.00
2018-06-30T12:10:16.292Z,13160.00
2018-06-30T12:11:16.272Z,13008.00
2018-06-30T12:12:16.251Z,12980.00
2018-06-30T12:13:16.232Z,12712.00
2018-06-30T12:14:16.211Z,12536.00
2018-06-30T12:15:16.190Z,12768.00
2018-06-30T12:16:16.173Z,12912.00